Time;durP1;ratioP1;P1;durP2;ratioP2;P2;SDS_P1;SDS_P2;PMS_P1;PMS_P2;Temp;Humidity;BMP_temperature;BMP_pressure;BME280_temperature;BME280_humidity;BME280_pressure;Samples;Min_cycle;Max_cycle;Signal;HPM_P1;HPM_P2
2022/09/23 00:01:32;;;;;;;6.30;3.33;;;;;;;;;;5096150;28;20048;-68
2022/09/23 00:03:59;;;;;;;4.78;3.22;;;;;;;;;;5095587;28;20036;-68
2022/09/23 00:06:27;;;;;;;4.28;3.22;;;;;;;;;;5094801;28;20108;-68
2022/09/23 00:08:53;;;;;;;8.07;3.95;;;;;;;;;;5096528;28;20092;-68
2022/09/23 00:11:20;;;;;;;7.30;3.38;;;;;;;;;;5095508;28;20047;-68
2022/09/23 00:13:47;;;;;;;7.20;3.25;;;;;;;;;;5096210;28;20521;-68
2022/09/23 00:16:15;;;;;;;6.88;3.40;;;;;;;;;;5095630;28;20666;-68
2022/09/23 00:18:41;;;;;;;5.15;3.22;;;;;;;;;;5095542;28;20064;-68
2022/09/23 00:21:10;;;;;;;3.42;3.13;;;;;;;;;;5095649;28;20109;-68
2022/09/23 00:23:37;;;;;;;5.45;3.42;;;;;;;;;;5095523;28;20048;-68
2022/09/23 00:26:04;;;;;;;5.90;3.22;;;;;;;;;;5095461;28;20040;-68
2022/09/23 00:28:31;;;;;;;4.70;2.83;;;;;;;;;;5095089;28;20040;-68
2022/09/23 00:30:57;;;;;;;5.72;3.50;;;;;;;;;;5095266;28;20036;-68
2022/09/23 00:33:23;;;;;;;8.88;3.40;;;;;;;;;;5094960;28;20086;-68
2022/09/23 00:35:49;;;;;;;7.53;3.33;;;;;;;;;;5095593;28;20044;-68
2022/09/23 00:38:16;;;;;;;6.18;3.42;;;;;;;;;;5094801;28;20094;-68
2022/09/23 00:40:45;;;;;;;4.25;3.10;;;;;;;;;;5095099;28;20030;-68
2022/09/23 00:43:14;;;;;;;5.80;2.85;;;;;;;;;;5094943;28;20043;-68
2022/09/23 00:45:45;;;;;;;5.13;3.42;;;;;;;;;;5095234;28;20496;-68
2022/09/23 00:48:14;;;;;;;5.38;3.53;;;;;;;;;;5094870;28;20126;-68
2022/09/23 00:50:42;;;;;;;4.05;2.90;;;;;;;;;;5094748;28;20044;-68
2022/09/23 00:53:10;;;;;;;7.85;3.47;;;;;;;;;;5094858;28;20052;-68
2022/09/23 00:55:38;;;;;;;4.07;2.78;;;;;;;;;;5095125;28;20035;-68
2022/09/23 00:58:06;;;;;;;5.22;3.00;;;;;;;;;;5094999;28;20066;-68
2022/09/23 01:00:34;;;;;;;6.53;2.92;;;;;;;;;;5094621;28;20044;-68
2022/09/23 01:03:00;;;;;;;5.95;2.95;;;;;;;;;;5095044;28;20052;-68
2022/09/23 01:05:26;;;;;;;5.90;3.45;;;;;;;;;;5094520;28;20418;-68
2022/09/23 01:07:56;;;;;;;4.35;3.60;;;;;;;;;;5094293;28;20414;-68
2022/09/23 01:10:22;;;;;;;4.82;3.10;;;;;;;;;;5094426;28;20044;-68
2022/09/23 01:13:11;;;;;;;3.50;3.20;;;;;;;;;;5094503;28;20546;-68
2022/09/23 01:15:41;;;;;;;6.35;3.05;;;;;;;;;;5095023;28;20036;-68
2022/09/23 01:18:10;;;;;;;4.82;2.97;;;;;;;;;;5094201;28;20064;-68
2022/09/23 01:20:42;;;;;;;6.40;3.15;;;;;;;;;;5094376;28;20571;-68
2022/09/23 01:23:20;;;;;;;5.72;3.25;;;;;;;;;;5094236;28;20055;-68
2022/09/23 01:25:46;;;;;;;5.25;3.05;;;;;;;;;;5094580;28;20047;-68
2022/09/23 01:28:32;;;;;;;3.85;3.45;;;;;;;;;;5094534;28;20048;-68
2022/09/23 01:31:01;;;;;;;5.80;3.45;;;;;;;;;;5093871;28;20039;-68
2022/09/23 01:33:30;;;;;;;7.70;3.05;;;;;;;;;;5094182;28;20052;-68
2022/09/23 01:36:02;;;;;;;6.38;3.35;;;;;;;;;;5094234;28;20036;-68
2022/09/23 01:38:31;;;;;;;3.55;2.90;;;;;;;;;;5094451;28;20040;-68
2022/09/23 01:41:02;;;;;;;5.13;3.13;;;;;;;;;;5094149;28;20495;-68
2022/09/23 01:44:00;;;;;;;3.60;2.90;;;;;;;;;;5094240;28;20048;-68
2022/09/23 01:46:29;;;;;;;5.30;3.13;;;;;;;;;;5049439;28;20044;-68
2022/09/23 01:49:07;;;;;;;6.60;3.15;;;;;;;;;;5094086;28;20131;-68
2022/09/23 01:51:49;;;;;;;5.15;3.00;;;;;;;;;;5094064;28;20099;-68
2022/09/23 01:54:18;;;;;;;4.82;3.10;;;;;;;;;;5094045;28;20437;-68
2022/09/23 01:56:56;;;;;;;5.82;2.88;;;;;;;;;;5094217;28;20074;-68
2022/09/23 01:59:28;;;;;;;4.80;2.95;;;;;;;;;;5094384;28;20078;-68
2022/09/23 02:01:54;;;;;;;4.55;3.20;;;;;;;;;;5094310;28;20044;-68
2022/09/23 02:04:24;;;;;;;4.78;2.92;;;;;;;;;;5094473;28;20040;-68
2022/09/23 02:07:17;;;;;;;4.35;2.80;;;;;;;;;;5094368;28;20055;-68
2022/09/23 02:09:45;;;;;;;5.28;3.53;;;;;;;;;;5090134;28;20055;-68
2022/09/23 02:12:15;;;;;;;7.47;2.95;;;;;;;;;;5094302;28;20054;-68
2022/09/23 02:14:46;;;;;;;6.43;3.25;;;;;;;;;;5094131;28;20047;-68
2022/09/23 02:17:14;;;;;;;6.05;3.45;;;;;;;;;;5093899;28;20508;-68
2022/09/23 02:19:43;;;;;;;6.65;3.40;;;;;;;;;;5093762;28;20040;-68
2022/09/23 02:22:34;;;;;;;4.50;3.08;;;;;;;;;;5093977;28;20044;-68
2022/09/23 02:25:00;;;;;;;4.90;3.10;;;;;;;;;;5084618;28;20050;-68
2022/09/23 02:27:32;;;;;;;5.53;2.97;;;;;;;;;;5094166;28;20044;-68
2022/09/23 02:30:27;;;;;;;6.70;3.05;;;;;;;;;;5096623;28;20509;-68
2022/09/23 02:33:05;;;;;;;7.85;3.50;;;;;;;;;;5079817;28;20117;-68
2022/09/23 02:35:59;;;;;;;5.70;3.30;;;;;;;;;;5097633;28;20044;-68
2022/09/23 02:38:25;;;;;;;3.92;2.72;;;;;;;;;;5092571;28;20524;-68
2022/09/23 02:40:57;;;;;;;4.38;3.25;;;;;;;;;;5096683;28;20032;-68
2022/09/23 02:43:42;;;;;;;3.92;3.00;;;;;;;;;;5096432;28;20052;-68
2022/09/23 02:46:08;;;;;;;7.15;3.08;;;;;;;;;;5097430;28;20036;-68
2022/09/23 02:48:52;;;;;;;5.35;3.20;;;;;;;;;;5097382;28;20482;-68
2022/09/23 02:51:18;;;;;;;4.15;3.28;;;;;;;;;;5097372;28;20040;-68
2022/09/23 02:53:44;;;;;;;3.30;3.00;;;;;;;;;;5097269;28;20425;-68
2022/09/23 02:56:15;;;;;;;6.13;3.30;;;;;;;;;;5097205;28;20067;-68
2022/09/23 02:58:41;;;;;;;4.43;2.83;;;;;;;;;;5097935;28;20089;-68
2022/09/23 03:01:14;;;;;;;2.92;2.67;;;;;;;;;;5097698;28;20040;-68
2022/09/23 03:03:49;;;;;;;6.10;3.05;;;;;;;;;;5097409;28;20044;-68
2022/09/23 03:06:31;;;;;;;3.20;2.90;;;;;;;;;;5097703;28;20079;-68
2022/09/23 03:09:17;;;;;;;6.05;3.15;;;;;;;;;;5096975;28;20040;-68
2022/09/23 03:11:46;;;;;;;3.85;2.85;;;;;;;;;;5082613;28;20040;-68
2022/09/23 03:14:25;;;;;;;5.10;3.17;;;;;;;;;;5096583;28;20432;-68
2022/09/23 03:16:55;;;;;;;4.90;3.40;;;;;;;;;;5096819;28;20071;-68
2022/09/23 03:19:34;;;;;;;3.55;2.80;;;;;;;;;;5097299;28;20092;-68
2022/09/23 03:22:04;;;;;;;5.43;3.17;;;;;;;;;;5096557;28;20115;-68
2022/09/23 03:24:31;;;;;;;5.15;3.17;;;;;;;;;;5096686;28;20092;-68
2022/09/23 03:27:00;;;;;;;7.22;3.08;;;;;;;;;;5096815;28;20047;-68
2022/09/23 03:29:27;;;;;;;3.72;3.10;;;;;;;;;;5096245;28;20089;-68
2022/09/23 03:31:54;;;;;;;3.08;2.78;;;;;;;;;;5096252;28;20110;-68
2022/09/23 03:34:23;;;;;;;5.47;2.90;;;;;;;;;;5096758;28;20047;-68
2022/09/23 03:37:09;;;;;;;7.45;3.10;;;;;;;;;;5096276;28;20040;-68
2022/09/23 03:39:39;;;;;;;4.22;2.95;;;;;;;;;;5096314;28;20078;-68
2022/09/23 03:42:08;;;;;;;5.82;3.05;;;;;;;;;;5096280;28;20036;-68
2022/09/23 03:44:39;;;;;;;5.22;2.97;;;;;;;;;;5097114;28;20063;-68
2022/09/23 03:47:05;;;;;;;4.07;2.92;;;;;;;;;;5097039;28;20032;-68
2022/09/23 03:49:34;;;;;;;4.90;2.85;;;;;;;;;;5096180;28;20044;-68
2022/09/23 03:52:01;;;;;;;3.38;2.90;;;;;;;;;;5096575;28;20078;-68
2022/09/23 03:54:28;;;;;;;4.05;2.88;;;;;;;;;;5096832;28;20540;-68
2022/09/23 03:56:58;;;;;;;5.72;3.08;;;;;;;;;;5096295;28;20093;-68
2022/09/23 03:59:25;;;;;;;5.38;2.90;;;;;;;;;;5097086;28;20032;-68
2022/09/23 04:01:52;;;;;;;5.57;3.10;;;;;;;;;;5095175;28;20419;-68
2022/09/23 04:04:18;;;;;;;5.43;3.10;;;;;;;;;;5096120;28;20040;-68
2022/09/23 04:06:45;;;;;;;4.65;3.25;;;;;;;;;;5095905;28;20036;-68
2022/09/23 04:09:11;;;;;;;5.95;3.20;;;;;;;;;;5096357;28;20042;-68
2022/09/23 04:11:37;;;;;;;4.75;3.00;;;;;;;;;;5096239;28;20044;-68
2022/09/23 04:14:03;;;;;;;6.13;2.88;;;;;;;;;;5095976;28;20086;-68
2022/09/23 04:16:30;;;;;;;3.83;3.08;;;;;;;;;;5096203;28;20043;-68
2022/09/23 04:18:56;;;;;;;4.88;3.00;;;;;;;;;;5095907;28;20509;-68
2022/09/23 04:21:22;;;;;;;5.20;2.97;;;;;;;;;;5095747;28;20066;-68
2022/09/23 04:23:48;;;;;;;4.03;3.20;;;;;;;;;;5095821;28;20046;-68
2022/09/23 04:26:15;;;;;;;6.45;3.03;;;;;;;;;;5095446;28;20040;-68
2022/09/23 04:28:41;;;;;;;6.72;3.50;;;;;;;;;;5096319;28;20040;-68
2022/09/23 04:31:08;;;;;;;4.85;2.97;;;;;;;;;;5095887;28;20032;-68
2022/09/23 04:33:35;;;;;;;5.63;3.15;;;;;;;;;;5095643;28;20040;-68
2022/09/23 04:36:01;;;;;;;4.10;3.15;;;;;;;;;;5095893;28;20040;-68
2022/09/23 04:38:27;;;;;;;2.70;2.45;;;;;;;;;;5094883;28;20035;-68
2022/09/23 04:40:53;;;;;;;4.97;3.40;;;;;;;;;;5093857;28;20043;-69
2022/09/23 04:43:22;;;;;;;6.05;3.28;;;;;;;;;;5092838;28;20039;-68
2022/09/23 04:45:57;;;;;;;3.97;2.83;;;;;;;;;;5095930;28;20036;-68
2022/09/23 04:48:23;;;;;;;3.80;2.97;;;;;;;;;;5095070;28;20036;-68
2022/09/23 04:50:49;;;;;;;4.65;2.90;;;;;;;;;;5094872;28;20145;-68
2022/09/23 04:53:15;;;;;;;6.25;2.58;;;;;;;;;;5093614;28;20044;-68
2022/09/23 04:55:42;;;;;;;5.75;2.92;;;;;;;;;;5094854;28;20051;-68
2022/09/23 04:58:09;;;;;;;3.67;2.70;;;;;;;;;;5095006;28;20067;-68
2022/09/23 05:00:35;;;;;;;4.80;2.80;;;;;;;;;;5094769;28;20127;-68
2022/09/23 05:03:01;;;;;;;6.15;3.10;;;;;;;;;;5094800;28;20075;-68
2022/09/23 05:05:28;;;;;;;5.78;3.05;;;;;;;;;;5094673;28;20050;-68
2022/09/23 05:07:55;;;;;;;4.95;2.88;;;;;;;;;;5094545;28;20064;-68
2022/09/23 05:10:22;;;;;;;5.30;3.10;;;;;;;;;;5094523;28;20043;-68
2022/09/23 05:12:48;;;;;;;5.50;2.72;;;;;;;;;;5094664;28;20109;-68
2022/09/23 05:15:15;;;;;;;3.20;2.90;;;;;;;;;;5094728;28;20055;-68
2022/09/23 05:17:43;;;;;;;7.20;2.90;;;;;;;;;;5094272;28;20422;-68
2022/09/23 05:20:10;;;;;;;5.68;3.10;;;;;;;;;;5094336;28;20403;-68
2022/09/23 05:22:36;;;;;;;6.28;3.28;;;;;;;;;;5094399;28;20112;-68
2022/09/23 05:25:02;;;;;;;5.03;2.90;;;;;;;;;;5094217;28;20035;-68
2022/09/23 05:27:28;;;;;;;7.57;2.80;;;;;;;;;;5094266;28;20036;-68
2022/09/23 05:29:55;;;;;;;5.63;2.95;;;;;;;;;;5093882;28;20032;-68
2022/09/23 05:32:21;;;;;;;4.85;3.03;;;;;;;;;;5094703;28;20487;-67
2022/09/23 05:34:47;;;;;;;7.18;3.58;;;;;;;;;;5094532;28;20044;-67
2022/09/23 05:37:13;;;;;;;6.57;3.58;;;;;;;;;;5094535;28;20063;-67
2022/09/23 05:39:39;;;;;;;7.80;3.25;;;;;;;;;;5094444;28;20450;-67
2022/09/23 05:42:06;;;;;;;4.53;3.25;;;;;;;;;;5093641;28;20571;-68
2022/09/23 05:44:32;;;;;;;5.30;2.80;;;;;;;;;;5093884;28;20035;-67
2022/09/23 05:46:58;;;;;;;4.15;2.53;;;;;;;;;;5093236;28;20093;-68
2022/09/23 05:49:24;;;;;;;6.63;3.28;;;;;;;;;;5093962;28;20032;-67
2022/09/23 05:51:50;;;;;;;2.90;2.60;;;;;;;;;;5093446;28;20052;-67
2022/09/23 05:54:16;;;;;;;5.15;2.75;;;;;;;;;;5093625;28;20044;-67
2022/09/23 05:56:42;;;;;;;4.45;3.20;;;;;;;;;;5093901;28;20050;-67
2022/09/23 05:59:09;;;;;;;4.60;2.72;;;;;;;;;;5093889;28;20047;-68
2022/09/23 06:01:37;;;;;;;4.43;2.85;;;;;;;;;;5094881;28;20052;-67
2022/09/23 06:04:04;;;;;;;6.15;3.30;;;;;;;;;;5096245;28;20075;-67
2022/09/23 06:06:36;;;;;;;4.35;3.17;;;;;;;;;;5098222;28;20116;-68
2022/09/23 06:09:02;;;;;;;5.85;2.63;;;;;;;;;;5098309;28;20101;-68
2022/09/23 06:11:33;;;;;;;8.35;3.17;;;;;;;;;;5098662;28;20071;-69
2022/09/23 06:13:59;;;;;;;10.00;3.53;;;;;;;;;;5098404;28;20136;-69
2022/09/23 06:16:26;;;;;;;6.85;3.28;;;;;;;;;;5079833;28;20119;-69
2022/09/23 06:18:52;;;;;;;7.72;3.33;;;;;;;;;;5098218;28;20487;-69
2022/09/23 06:21:18;;;;;;;7.13;2.88;;;;;;;;;;5097730;28;20044;-69
2022/09/23 06:23:45;;;;;;;8.55;3.30;;;;;;;;;;5098717;28;20494;-69
2022/09/23 06:26:13;;;;;;;7.38;3.08;;;;;;;;;;5098100;28;20036;-69
2022/09/23 06:28:40;;;;;;;7.68;3.55;;;;;;;;;;5098373;28;20119;-68
2022/09/23 06:31:14;;;;;;;7.65;3.58;;;;;;;;;;5097652;28;20124;-69
2022/09/23 06:33:40;;;;;;;9.80;2.97;;;;;;;;;;5098255;28;20059;-69
2022/09/23 06:36:07;;;;;;;9.13;3.50;;;;;;;;;;5097732;28;20036;-69
2022/09/23 06:38:33;;;;;;;10.75;2.80;;;;;;;;;;5097497;28;20036;-69
2022/09/23 06:41:02;;;;;;;5.53;2.72;;;;;;;;;;5097536;28;20094;-70
2022/09/23 06:43:28;;;;;;;7.10;2.90;;;;;;;;;;5097171;28;20051;-69
2022/09/23 06:45:58;;;;;;;8.20;2.90;;;;;;;;;;5097441;28;20077;-69
2022/09/23 06:48:25;;;;;;;8.37;3.50;;;;;;;;;;5097386;28;20044;-68
2022/09/23 06:50:52;;;;;;;5.70;3.55;;;;;;;;;;5097888;28;20051;-70
2022/09/23 06:53:21;;;;;;;6.45;2.83;;;;;;;;;;5096779;28;20101;-69
2022/09/23 06:55:47;;;;;;;3.40;2.88;;;;;;;;;;5096545;28;20039;-69
2022/09/23 06:58:14;;;;;;;3.88;2.78;;;;;;;;;;5104026;28;20578;-70
2022/09/23 07:00:40;;;;;;;6.80;2.97;;;;;;;;;;5110353;28;20063;-69
2022/09/23 07:03:07;;;;;;;7.35;3.30;;;;;;;;;;5097304;28;20052;-69
2022/09/23 07:05:33;;;;;;;7.90;3.17;;;;;;;;;;5110830;28;20047;-69
2022/09/23 07:08:00;;;;;;;3.60;2.90;;;;;;;;;;5096993;28;20102;-69
2022/09/23 07:10:29;;;;;;;7.95;3.00;;;;;;;;;;5096914;28;20098;-69
2022/09/23 07:12:56;;;;;;;9.65;3.05;;;;;;;;;;5098253;28;20069;-69
2022/09/23 07:15:22;;;;;;;4.60;3.10;;;;;;;;;;5109886;28;20047;-69
2022/09/23 07:17:48;;;;;;;9.57;3.17;;;;;;;;;;5110338;28;20039;-69
2022/09/23 07:20:16;;;;;;;8.85;3.75;;;;;;;;;;5114640;28;20515;-69
2022/09/23 07:22:43;;;;;;;6.10;3.13;;;;;;;;;;5102344;28;20075;-70
2022/09/23 07:25:11;;;;;;;9.73;3.17;;;;;;;;;;5103233;28;20044;-70
2022/09/23 07:27:37;;;;;;;5.70;2.90;;;;;;;;;;5116983;28;20047;-70
2022/09/23 07:30:03;;;;;;;9.98;2.90;;;;;;;;;;5095951;28;20039;-70
2022/09/23 07:32:30;;;;;;;10.07;3.05;;;;;;;;;;5095004;28;20495;-69
2022/09/23 07:34:56;;;;;;;3.70;2.40;;;;;;;;;;5106446;28;20044;-70
2022/09/23 07:37:22;;;;;;;4.82;3.13;;;;;;;;;;5114620;28;20119;-69
2022/09/23 07:39:49;;;;;;;4.65;2.78;;;;;;;;;;5116772;28;20082;-69
2022/09/23 07:42:16;;;;;;;14.32;3.10;;;;;;;;;;5117139;28;20067;-70
2022/09/23 07:44:44;;;;;;;6.18;2.90;;;;;;;;;;5116405;28;20043;-69
2022/09/23 07:47:10;;;;;;;4.90;3.10;;;;;;;;;;5105428;28;20036;-69
2022/09/23 07:49:37;;;;;;;7.30;2.70;;;;;;;;;;5095614;28;20040;-69
2022/09/23 07:52:04;;;;;;;6.72;3.08;;;;;;;;;;5096091;28;20048;-69
2022/09/23 07:54:30;;;;;;;11.25;3.40;;;;;;;;;;5095638;28;20123;-69
2022/09/23 07:56:57;;;;;;;14.18;2.97;;;;;;;;;;5095129;28;20032;-69
2022/09/23 07:59:23;;;;;;;12.65;3.33;;;;;;;;;;5096043;28;20040;-69
2022/09/23 08:01:54;;;;;;;13.32;3.28;;;;;;;;;;5095138;28;20071;-69
2022/09/23 08:04:28;;;;;;;13.10;3.50;;;;;;;;;;5095500;28;20073;-70
2022/09/23 08:06:59;;;;;;;21.15;4.07;;;;;;;;;;5094949;28;20028;-71
2022/09/23 08:09:25;;;;;;;;;;;;;;;;;;5095724;28;20040;-69
2022/09/23 08:11:51;;;;;;;26.10;3.42;;;;;;;;;;5095487;28;19919;-69
2022/09/23 08:14:17;;;;;;;18.48;3.25;;;;;;;;;;5095439;28;20155;-69
2022/09/23 08:16:46;;;;;;;19.55;3.10;;;;;;;;;;5095048;28;20044;-69
2022/09/23 08:19:13;;;;;;;14.93;3.25;;;;;;;;;;5095015;28;20089;-69
2022/09/23 08:21:39;;;;;;;10.38;3.08;;;;;;;;;;5094985;28;20071;-69
2022/09/23 08:24:06;;;;;;;30.40;4.07;;;;;;;;;;5080816;28;20049;-69
2022/09/23 08:26:33;;;;;;;32.78;3.80;;;;;;;;;;5095057;28;20032;-69
2022/09/23 08:28:59;;;;;;;12.25;2.40;;;;;;;;;;5095378;28;20042;-68
2022/09/23 08:31:26;;;;;;;14.13;3.10;;;;;;;;;;5094637;28;20052;-68
2022/09/23 08:33:55;;;;;;;13.52;3.22;;;;;;;;;;5095127;28;20046;-68
2022/09/23 08:36:22;;;;;;;11.65;2.83;;;;;;;;;;5094368;28;20068;-68
2022/09/23 08:38:48;;;;;;;13.80;2.72;;;;;;;;;;5095545;28;20054;-69
2022/09/23 08:41:33;;;;;;;13.77;2.80;;;;;;;;;;5095476;28;20502;-68
2022/09/23 08:44:02;;;;;;;9.38;2.50;;;;;;;;;;5094690;28;20044;-68
2022/09/23 08:46:35;;;;;;;7.20;2.72;;;;;;;;;;5094556;28;20036;-68
2022/09/23 08:49:01;;;;;;;6.40;1.95;;;;;;;;;;5094615;28;20074;-68
2022/09/23 08:51:54;;;;;;;9.18;2.38;;;;;;;;;;5093327;28;20044;-68
2022/09/23 08:54:20;;;;;;;15.60;3.00;;;;;;;;;;5090653;28;20150;-68
2022/09/23 08:56:50;;;;;;;6.75;2.22;;;;;;;;;;5094141;28;20043;-69
2022/09/23 08:59:16;;;;;;;8.90;2.05;;;;;;;;;;5089204;28;20048;-68
2022/09/23 09:01:53;;;;;;;7.07;2.13;;;;;;;;;;5095205;28;20118;-67
2022/09/23 09:04:38;;;;;;;9.05;1.92;;;;;;;;;;5093545;28;20044;-67
2022/09/23 09:07:14;;;;;;;6.55;1.90;;;;;;;;;;5075637;28;20040;-69
2022/09/23 09:09:44;;;;;;;9.10;2.20;;;;;;;;;;5095425;28;20040;-68
2022/09/23 09:12:15;;;;;;;6.85;1.95;;;;;;;;;;5093199;28;20044;-68
2022/09/23 09:14:50;;;;;;;5.10;1.55;;;;;;;;;;5094379;28;20060;-69
2022/09/23 09:17:27;;;;;;;8.65;1.52;;;;;;;;;;5094388;28;20047;-69
2022/09/23 09:20:03;;;;;;;6.25;1.67;;;;;;;;;;5094981;28;20040;-69
2022/09/23 09:22:39;;;;;;;4.65;1.55;;;;;;;;;;5093570;28;20044;-68
2022/09/23 09:25:26;;;;;;;5.13;1.30;;;;;;;;;;5094382;28;20066;-68
2022/09/23 09:27:53;;;;;;;9.07;2.25;;;;;;;;;;5083180;28;20115;-68
2022/09/23 09:30:23;;;;;;;3.70;1.75;;;;;;;;;;5094148;28;20036;-68
2022/09/23 09:33:03;;;;;;;2.65;1.73;;;;;;;;;;5093863;28;20055;-68
2022/09/23 09:35:36;;;;;;;3.88;1.67;;;;;;;;;;5093888;28;20437;-68
2022/09/23 09:38:04;;;;;;;6.32;1.52;;;;;;;;;;5075177;28;20043;-68
2022/09/23 09:40:31;;;;;;;7.70;1.40;;;;;;;;;;5093896;28;20043;-68
2022/09/23 09:42:57;;;;;;;4.53;1.52;;;;;;;;;;5098259;28;20054;-68
2022/09/23 09:45:27;;;;;;;5.15;1.48;;;;;;;;;;5098501;28;20043;-68
2022/09/23 09:48:09;;;;;;;5.20;1.75;;;;;;;;;;5099021;28;20047;-69
2022/09/23 09:50:52;;;;;;;5.20;1.20;;;;;;;;;;5097972;28;20077;-68
2022/09/23 09:53:29;;;;;;;6.70;1.60;;;;;;;;;;5098007;28;20406;-69
2022/09/23 09:56:01;;;;;;;3.92;1.52;;;;;;;;;;5098011;28;20036;-68
2022/09/23 09:58:29;;;;;;;6.28;1.50;;;;;;;;;;5086603;28;20036;-68
2022/09/23 10:00:55;;;;;;;6.50;1.77;;;;;;;;;;5098524;28;20110;-68
2022/09/23 10:03:33;;;;;;;8.90;1.80;;;;;;;;;;5098028;28;20387;-68
2022/09/23 10:05:59;;;;;;;3.88;1.17;;;;;;;;;;5098371;28;20063;-68
2022/09/23 10:08:26;;;;;;;11.73;1.90;;;;;;;;;;5097261;28;20044;-68
2022/09/23 10:10:53;;;;;;;5.35;1.63;;;;;;;;;;5086059;28;20071;-69
2022/09/23 10:13:22;;;;;;;7.20;2.05;;;;;;;;;;5094521;28;20507;-69
2022/09/23 10:15:49;;;;;;;8.13;1.75;;;;;;;;;;5096858;28;20036;-69
2022/09/23 10:18:20;;;;;;;4.72;1.80;;;;;;;;;;5096226;28;20097;-68
2022/09/23 10:20:47;;;;;;;4.07;1.50;;;;;;;;;;5097460;28;20059;-68
2022/09/23 10:23:16;;;;;;;6.63;1.60;;;;;;;;;;5096497;28;20059;-69
2022/09/23 10:25:42;;;;;;;5.20;1.52;;;;;;;;;;5097289;28;20036;-69
2022/09/23 10:28:47;;;;;;;6.60;1.75;;;;;;;;;;5096405;28;20040;-69
2022/09/23 10:31:15;;;;;;;5.90;1.58;;;;;;;;;;4994075;28;20047;-69
2022/09/23 10:33:46;;;;;;;10.68;1.98;;;;;;;;;;4994633;28;20177;-70
2022/09/23 10:36:12;;;;;;;;;;;;;;;;;;5041539;28;20048;-69
2022/09/23 10:38:38;;;;;;;7.90;1.80;;;;;;;;;;5094978;28;19929;-69
2022/09/23 10:47:10;;;;;;;4.28;1.15;;;;;;;;;;5075547;28;20430;-69
2022/09/23 10:49:57;;;;;;;5.90;1.38;;;;;;;;;;5083135;28;20042;-69
2022/09/23 10:52:26;;;;;;;4.20;1.30;;;;;;;;;;5095902;28;20054;-69
2022/09/23 10:54:52;;;;;;;4.90;1.52;;;;;;;;;;5096394;28;20130;-69
2022/09/23 10:57:36;;;;;;;8.40;1.60;;;;;;;;;;5096157;28;20040;-68
2022/09/23 11:00:21;;;;;;;5.07;1.40;;;;;;;;;;5095880;28;20047;-67
2022/09/23 11:03:08;;;;;;;4.32;1.25;;;;;;;;;;5084668;28;20407;-68
2022/09/23 11:05:54;;;;;;;5.95;1.65;;;;;;;;;;5095647;28;20118;-69
2022/09/23 11:08:20;;;;;;;4.85;1.55;;;;;;;;;;5094022;28;20067;-68
2022/09/23 11:11:25;;;;;;;6.10;2.10;;;;;;;;;;5096547;28;20035;-68
2022/09/23 11:13:51;;;;;;;2.65;1.38;;;;;;;;;;4993332;28;20247;-68
2022/09/23 11:16:20;;;;;;;3.28;1.55;;;;;;;;;;4993320;28;20525;-69
2022/09/23 11:18:57;;;;;;;5.30;1.88;;;;;;;;;;5034895;28;20447;-69
2022/09/23 11:21:43;;;;;;;6.05;1.52;;;;;;;;;;5093629;28;20113;-69
2022/09/23 11:24:24;;;;;;;6.63;2.28;;;;;;;;;;5095415;28;20057;-69
2022/09/23 11:27:05;;;;;;;7.13;1.58;;;;;;;;;;5096257;28;20503;-68
2022/09/23 11:29:55;;;;;;;5.30;1.60;;;;;;;;;;5095478;28;20132;-69
2022/09/23 11:33:01;;;;;;;7.57;1.90;;;;;;;;;;5094821;28;20048;-69
2022/09/23 11:35:31;;;;;;;4.03;1.70;;;;;;;;;;4993178;28;20038;-68
2022/09/23 11:38:02;;;;;;;3.45;1.60;;;;;;;;;;5063616;28;20045;-68
2022/09/23 11:40:33;;;;;;;7.15;1.83;;;;;;;;;;5088110;28;20113;-69
2022/09/23 11:43:13;;;;;;;7.85;1.65;;;;;;;;;;5094410;28;20046;-69
